• Join FlightAware (Why Join?)
  • Login
  • US Flag 
05:34AM EST


 

Airport Tracker/Info


-or-


 

Live Flight TrackerFlight Track Log ✈ N436AA ✈ 05-May-2012 ✈ KBWI - KDFW

Flight Track Log - Related Links

Times and Time Zones

All times are in EDT time to prevent confusion due to time zone crossing. See the N436AA flight status page for this flight to view local times or setup timezone preferences in your user account.

Time Position Orientation Groundspeed Altitude Reporting Facility
EDT Latitude Longitude Course Direction KTS MPH feet Rate Location/Type
07:10AM 39.2000 -76.8835 106° East  Level FlightAware Approximate
07:10AM 39.1667 -76.7333 273° West 186 214 2,000  Level Potomac TRACON
07:15AM 39.1864 -77.1769 213° Southwest 319 367 11,900 2,040 Climbing Washington Center
07:16AM 39.1000 -77.2500 212° Southwest 368 423 14,000 1,920 Climbing Potomac TRACON
07:18AM 38.9269 -77.3900 213° Southwest 408 470 17,800 1,980 Climbing Washington Center
07:19AM 38.8319 -77.4678 213° Southwest 408 470 19,900 1,860 Climbing Washington Center
07:20AM 38.7392 -77.5453 211° Southwest 408 470 21,600 1,440 Climbing Washington Center
07:21AM 38.6503 -77.6147 218° Southwest 413 475 22,800 1,320 Climbing Washington Center
07:22AM 38.5444 -77.7206 227° Southwest 433 498 24,300 1,440 Climbing Washington Center
07:23AM 38.4608 -77.8350 223° Southwest 438 504 25,700 1,200 Climbing Washington Center
07:24AM 38.3692 -77.9433 223° Southwest 443 510 26,800 1,140 Climbing Washington Center
07:25AM 38.2753 -78.0542 223° Southwest 450 518 28,000 1,200 Climbing Washington Center
07:26AM 38.1811 -78.1644 223° Southwest 461 531 29,300 1,380 Climbing Washington Center
07:27AM 38.0914 -78.2697 222° Southwest 455 524 30,900 1,020 Climbing Washington Center
07:28AM 38.0183 -78.3542 225° Southwest 449 517 31,400 540 Climbing Washington Center
07:29AM 37.9261 -78.4692 222° Southwest 436 502 32,000 240 Climbing Washington Center
07:30AM 37.8358 -78.5736 222° Southwest 431 496 32,000  Level Washington Center
07:31AM 37.7414 -78.6828 222° Southwest 439 505 32,000  Level Washington Center
07:32AM 37.6381 -78.7992 222° Southwest 451 519 32,000  Level Washington Center
07:33AM 37.5456 -78.9053 222° Southwest 451 519 32,000  Level Washington Center
07:34AM 37.4508 -79.0136 221° Southwest 451 519 32,000  Level Washington Center
07:35AM 37.3558 -79.1192 222° Southwest 451 519 32,000  Level Washington Center
07:36AM 37.2631 -79.2244 225° Southwest 451 519 32,000  Level Washington Center
07:37AM 37.1742 -79.3375 225° Southwest 451 519 32,000  Level Washington Center
07:38AM 37.0936 -79.4378 225° Southwest 456 525 32,000  Level Washington Center
07:39AM 37.0067 -79.5478 225° Southwest 456 525 32,000  Level Washington Center
07:41AM 36.7967 -79.8083 224° Southwest 465 535 32,000  Level Atlanta Center
07:42AM 36.7044 -79.9192 225° Southwest 465 535 32,000  Level Atlanta Center
07:43AM 36.6164 -80.0300 225° Southwest 465 535 32,000  Level Atlanta Center
07:44AM 36.5242 -80.1431 225° Southwest 465 535 32,000  Level Atlanta Center
07:45AM 36.4417 -80.2450 225° Southwest 465 535 32,000  Level Atlanta Center
07:46AM 36.3514 -80.3575 224° Southwest 465 535 32,000  Level Atlanta Center
07:47AM 36.2608 -80.4672 223° Southwest 465 535 32,000  Level Atlanta Center
07:48AM 36.1678 -80.5742 226° Southwest 460 529 32,000  Level Atlanta Center
07:49AM 36.0711 -80.6992 229° Southwest 460 529 32,000 -60 Level Atlanta Center
07:50AM 35.9889 -80.8181 265° West 460 529 31,900  Descending Atlanta Center
07:51AM 35.9783 -80.9725 256° West 433 498 32,000  Climbing Atlanta Center
07:52AM 35.9467 -81.1275 255° West 456 525 32,000  Level Atlanta Center
07:53AM 35.9125 -81.2825 254° West 463 533 32,000  Level Atlanta Center
07:54AM 35.8764 -81.4350 253° West 463 533 32,000  Level Atlanta Center
07:55AM 35.8397 -81.5872 254° West 463 533 32,000  Level Atlanta Center
07:56AM 35.8050 -81.7317 253° West 458 527 32,000  Level Atlanta Center
07:57AM 35.7681 -81.8839 253° West 458 527 32,000  Level Atlanta Center
07:58AM 35.7311 -82.0358 253° West 463 533 32,000  Level Atlanta Center
07:59AM 35.6958 -82.1797 254° West 463 533 32,000  Level Atlanta Center
08:00AM 35.6606 -82.3289 254° West 458 527 32,000  Level Atlanta Center
08:01AM 35.6250 -82.4828 251° West 465 535 32,000  Level Atlanta Center
08:02AM 35.5889 -82.6111 254° West 465 535 32,000  Level Atlanta Center
08:03AM 35.5531 -82.7625 254° West 463 533 32,000  Level Atlanta Center
08:04AM 35.5169 -82.9136 254° West 463 533 32,000  Level Atlanta Center
08:05AM 35.4808 -83.0644 253° West 463 533 32,000  Level Atlanta Center
08:06AM 35.4403 -83.2306 254° West 463 533 32,000  Level Atlanta Center
08:07AM 35.4036 -83.3864 253° West 463 533 32,000  Level Atlanta Center
08:08AM 35.3647 -83.5422 253° West 468 539 32,000  Level Atlanta Center
08:09AM 35.3256 -83.6975 252° West 473 544 32,000  Level Atlanta Center
08:10AM 35.2861 -83.8481 253° West 473 544 32,000  Level Atlanta Center
08:11AM 35.2467 -84.0031 254° West 479 551 32,000  Level Atlanta Center
08:12AM 35.2092 -84.1583 252° West 479 551 32,000  Level Atlanta Center
08:13AM 35.1692 -84.3081 253° West 479 551 32,000  Level Atlanta Center
08:14AM 35.1314 -84.4603 253° West 479 551 32,000  Level Atlanta Center
08:15AM 35.0975 -84.5922 252° West 474 545 32,000  Level Atlanta Center
08:16AM 35.0569 -84.7442 252° West 474 545 32,000  Level Atlanta Center
08:17AM 35.0183 -84.8933 252° West 474 545 32,000  Level Atlanta Center
08:18AM 34.9797 -85.0400 251° West 468 539 32,000  Level Atlanta Center
08:19AM 34.9389 -85.1867 252° West 463 533 32,000  Level Atlanta Center
08:20AM 34.8997 -85.3356 253° West 463 533 32,000  Level Atlanta Center
08:21AM 34.8647 -85.4792 251° West 458 527 32,000  Level Atlanta Center
08:22AM 34.8233 -85.6278 252° West 458 527 32,000  Level Atlanta Center
08:23AM 34.7839 -85.7736 252° West 458 527 32,000  Level Atlanta Center
08:24AM 34.7419 -85.9294 253° West 453 521 32,000  Level Atlanta Center
08:25AM 34.7042 -86.0778 251° West 453 521 32,000  Level Atlanta Center
08:26AM 34.6639 -86.2208 251° West 458 527 32,000  Level Atlanta Center
08:27AM 34.6239 -86.3636 251° West 458 527 32,000  Level Atlanta Center
08:28AM 34.5881 -86.4914 252° West 458 527 32,000  Level Atlanta Center
08:29AM 34.5494 -86.6339 251° West 458 527 32,000  Level Atlanta Center
08:32AM 34.4503 -86.9822 252° West 457 526 32,000  Level Memphis Center
08:33AM 34.4086 -87.1400 250° West 452 520 32,000  Level Memphis Center
08:34AM 34.3739 -87.2544 251° West 431 496 32,000  Level Memphis Center
08:35AM 34.3356 -87.3917 251° West 431 496 32,000  Level Memphis Center
08:36AM 34.2911 -87.5439 250° West 436 502 32,000  Level Memphis Center
08:37AM 34.2503 -87.6811 250° West 431 496 32,000  Level Memphis Center
08:38AM 34.2092 -87.8181 252° West 431 496 32,000  Level Memphis Center
08:39AM 34.1722 -87.9519 249° West 432 497 32,000  Level Memphis Center
08:40AM 34.1289 -88.0914 250° West 439 505 32,000  Level Memphis Center
08:41AM 34.0897 -88.2228 252° West 446 513 32,000  Level Memphis Center
08:42AM 34.0503 -88.3667 249° West 452 520 32,000  Level Memphis Center
08:43AM 34.0086 -88.5003 251° West 447 514 32,000  Level Memphis Center
08:44AM 33.9647 -88.6542 249° West 447 514 32,000  Level Memphis Center
08:45AM 33.9208 -88.7928 248° West 447 514 32,000  Level Memphis Center
08:46AM 33.8825 -88.9083 251° West 436 502 32,000  Level Memphis Center
08:47AM 33.8444 -89.0442 251° West 431 496 32,000  Level Memphis Center
08:48AM 33.8019 -89.1947 249° West 431 496 32,000  Level Memphis Center
08:49AM 33.7633 -89.3153 250° West 431 496 32,000  Level Memphis Center
08:50AM 33.7247 -89.4431 250° West 426 490 32,000  Level Memphis Center
08:51AM 33.6861 -89.5733 250° West 426 490 32,000  Level Memphis Center
08:52AM 33.6450 -89.7058 248° West 426 490 32,000  Level Memphis Center
08:53AM 33.6017 -89.8358 250° West 426 490 32,000  Level Memphis Center
08:54AM 33.5625 -89.9658 249° West 431 496 32,000  Level Memphis Center
08:55AM 33.5211 -90.0956 249° West 431 496 32,000  Level Memphis Center
08:56AM 33.4797 -90.2278 250° West 431 496 32,000  Level Memphis Center
08:57AM 33.4400 -90.3572 249° West 426 490 32,000  Level Memphis Center
08:58AM 33.3983 -90.4892 250° West 426 490 32,000  Level Memphis Center
08:59AM 33.3606 -90.6158 250° West 426 490 32,000  Level Memphis Center
09:00AM 33.3164 -90.7600 250° West 421 484 32,000  Level Memphis Center
09:01AM 33.2761 -90.8889 250° West 421 484 32,000  Level Memphis Center
09:02AM 33.2381 -91.0156 248° West 421 484 32,000  Level Memphis Center
09:03AM 33.1933 -91.1467 251° West 421 484 32,000  Level Memphis Center
09:04AM 33.1572 -91.2728 249° West 421 484 32,000  Level Memphis Center
09:06AM 33.0864 -91.4956 250° West 426 490 32,000  Level Fort Worth Center
09:07AM 33.0467 -91.6247 248° West 426 490 32,000  Level Fort Worth Center
09:08AM 33.0042 -91.7486 252° West 419 482 32,000  Level Fort Worth Center
09:09AM 32.9667 -91.8897 247° West 412 474 32,000  Level Fort Worth Center
09:10AM 32.9200 -92.0189 251° West 418 481 32,000  Level Fort Worth Center
09:11AM 32.8836 -92.1447 249° West 418 481 32,000  Level Fort Worth Center
09:12AM 32.8431 -92.2706 247° West 418 481 32,000  Level Fort Worth Center
09:13AM 32.7981 -92.3992 249° West 418 481 32,000  Level Fort Worth Center
09:14AM 32.7572 -92.5275 253° West 418 481 32,000  Level Fort Worth Center
09:15AM 32.7247 -92.6575 263° West 418 481 32,000  Level Fort Worth Center
09:16AM 32.7108 -92.7917 261° West 413 475 32,000  Level Fort Worth Center
09:17AM 32.6928 -92.9258 260° West 413 475 32,000  Level Fort Worth Center
09:18AM 32.6725 -93.0600 261° West 413 475 32,000  Level Fort Worth Center
09:19AM 32.6542 -93.1967 260° West 413 475 32,000  Level Fort Worth Center
09:20AM 32.6336 -93.3308 260° West 418 481 32,000  Level Fort Worth Center
09:21AM 32.6128 -93.4675 259° West 418 481 32,000  Level Fort Worth Center
09:22AM 32.5900 -93.6042 261° West 418 481 32,000  Level Fort Worth Center
09:23AM 32.5728 -93.7281 260° West 418 481 32,000  Level Fort Worth Center
09:24AM 32.5517 -93.8644 261° West 424 488 32,000  Level Fort Worth Center
09:25AM 32.5325 -94.0006 260° West 429 494 32,000  Level Fort Worth Center
09:26AM 32.5111 -94.1369 260° West 429 494 32,000  Level Fort Worth Center
09:27AM 32.4917 -94.2731 260° West 429 494 32,000  Level Fort Worth Center
09:28AM 32.4700 -94.4117 260° West 429 494 32,000  Level Fort Worth Center
09:29AM 32.4500 -94.5453 259° West 429 494 32,000  Level Fort Worth Center
09:30AM 32.4281 -94.6839 261° West 429 494 32,000  Level Fort Worth Center
09:31AM 32.4100 -94.8197 247° West 429 494 32,000 -420 Level Fort Worth Center
09:32AM 32.3647 -94.9489 242° Southwest 429 494 31,200 -960 Descending Fort Worth Center
09:33AM 32.3044 -95.0833 244° Southwest 429 494 30,100 -1,080 Descending Fort Worth Center
09:34AM 32.2506 -95.2125 267° West 446 513 29,100 -1,020 Descending Fort Worth Center
09:35AM 32.2444 -95.3500 265° West 419 482 28,100 -1,020 Descending Fort Worth Center
09:36AM 32.2342 -95.4878 273° West 424 488 27,100 -1,020 Descending Fort Worth Center
09:37AM 32.2403 -95.6203 283° West 418 481 26,100 -1,020 Descending Fort Worth Center
09:38AM 32.2650 -95.7500 282° West 413 475 25,100 -900 Descending Fort Worth Center
09:39AM 32.2853 -95.8678 281° West 408 470 24,300 -1,800 Descending Fort Worth Center
09:40AM 32.3078 -96.0025 282° West 402 463 21,500 -2,460 Descending Fort Worth Center
09:41AM 32.3300 -96.1300 284° West 396 456 19,400 -2,280 Descending Fort Worth Center
09:41AM 32.3469 -96.2078 281° West 378 435 17,600 -2,220 Descending FAA TRACON SMA TRACON (SMA)
09:42AM 32.3603 -96.2897 280° West 371 427 16,300 -2,040 Descending FAA TRACON SMA TRACON (SMA)
09:43AM 32.3714 -96.3622 284° West 361 415 14,900 -2,220 Descending FAA TRACON SMA TRACON (SMA)
09:43AM 32.3875 -96.4403 312° West 357 411 13,400 -1,920 Descending FAA TRACON SMA TRACON (SMA)
09:44AM 32.4314 -96.4981 313° West 341 392 12,400 -1,320 Descending FAA TRACON SMA TRACON (SMA)
09:45AM 32.4758 -96.5553 315° West 340 391 11,600 -1,020 Descending FAA TRACON SMA TRACON (SMA)
09:45AM 32.5164 -96.6042 315° West 337 388 11,100 -480 Descending FAA TRACON SMA TRACON (SMA)
09:46AM 32.5614 -96.6575 315° West 328 377 11,000 -180 Descending FAA TRACON SMA TRACON (SMA)
09:47AM 32.6008 -96.7047 313° West 328 377 10,900  Descending FAA TRACON SMA TRACON (SMA)
09:47AM 32.6444 -96.7594 315° West 329 379 11,000 60 Climbing FAA TRACON SMA TRACON (SMA)
09:48AM 32.6883 -96.8125 314° West 325 374 11,000 -120 Level FAA TRACON SMA TRACON (SMA)
09:49AM 32.7247 -96.8578 318° Northwest 295 339 10,900  Descending FAA TRACON SMA TRACON (SMA)
09:49AM 32.7606 -96.8967 357° North 248 285 11,000 -480 Climbing FAA TRACON SMA TRACON (SMA)
09:50AM 32.8083 -96.8997 North 252 290 10,300 -1,320 Descending FAA TRACON SMA TRACON (SMA)
09:51AM 32.8506 -96.8989 357° North 252 290 9,300 -1,680 Descending FAA TRACON SMA TRACON (SMA)
09:51AM 32.8989 -96.9017 357° North 247 284 8,100 -2,040 Descending FAA TRACON SMA TRACON (SMA)
09:52AM 32.9486 -96.9050 359° North 257 296 6,600 -1,980 Descending FAA TRACON SMA TRACON (SMA)
09:53AM 32.9953 -96.9058 359° North 244 281 5,500 -1,680 Descending FAA TRACON SMA TRACON (SMA)